Terminal Aerodrome Forecast
Issued by NWS

Home | Current Version | Previous Version | Text Only | Print | Product List | Glossary On
Versions: 1 2 3 4 5 6 7 8 9 10 11 12 13 14 15 16 17 18 19 20 21 22 23 24 25
872
FTUS42 KFFC 281120
TAFFTY
TAF
KFTY 281120Z 2812/2912 23008KT P6SM SCT015
      TEMPO 2812/2814 BKN015
     FM281400 25010KT P6SM BKN030
     FM281800 26012G20KT P6SM VCSH BKN050
     FM290100 24007KT P6SM SCT050 BKN100=

USA.gov is the U.S. government's official web portal to all federal, state and local government web resources and services.